THY7LB LTFM-LTAY
Flight info
| Callsign | THY7LB |
|---|---|
| Flight time | 0h 40m |
| Altitude | 33000 |
| Route | RATVU UT35 TEKDO UW78 RESLI |
| Aircraft | A320/M-SDE3FGHIRWY/LB1 |
Departure
| Time | 2026-05-05 23:03 |
|---|---|
| Airport | İstanbul Airport (LTFM) |
Arrival
| Time | 2026-05-05 23:44 |
|---|---|
| Airport | Çardak Airport (LTAY) |
| Time | Latitude | Longitude | Altitude | Speed | Heading |
|---|---|---|---|---|---|
| 2026-05-05 22:53 | 41.26346 | 28.74931 | 331 ft | 0 kts | 287° |
| 2026-05-05 22:58 | 41.26343 | 28.74946 | 330 ft | 4 kts | 285° |
| 2026-05-05 22:58 | 41.26338 | 28.74980 | 329 ft | 4 kts | 274° |
| 2026-05-05 22:58 | 41.26340 | 28.75015 | 330 ft | 4 kts | 243° |
| 2026-05-05 22:59 | 41.26351 | 28.75031 | 332 ft | 0 kts | 197° |
| 2026-05-05 23:00 | 41.26346 | 28.75029 | 334 ft | 2 kts | 197° |
| 2026-05-05 23:01 | 41.26322 | 28.75020 | 334 ft | 5 kts | 197° |
| 2026-05-05 23:01 | 41.26279 | 28.75011 | 330 ft | 8 kts | 171° |
| 2026-05-05 23:01 | 41.26242 | 28.75069 | 334 ft | 10 kts | 96° |
| 2026-05-05 23:01 | 41.26245 | 28.75174 | 334 ft | 13 kts | 89° |
| 2026-05-05 23:02 | 41.26245 | 28.75312 | 334 ft | 16 kts | 89° |
| 2026-05-05 23:02 | 41.26248 | 28.75476 | 334 ft | 19 kts | 89° |
| 2026-05-05 23:02 | 41.26260 | 28.75639 | 330 ft | 13 kts | 56° |
| 2026-05-05 23:02 | 41.26349 | 28.75664 | 332 ft | 15 kts | 359° |
| 2026-05-05 23:03 | 41.26629 | 28.75658 | 332 ft | 76 kts | 359° |
| 2026-05-05 23:03 | 41.27362 | 28.75649 | 333 ft | 134 kts | 359° |
| 2026-05-05 23:03 | 41.28392 | 28.75650 | 675 ft | 149 kts | 0° |
| 2026-05-05 23:03 | 41.29422 | 28.75654 | 1312 ft | 149 kts | 7° |
| 2026-05-05 23:04 | 41.30311 | 28.76316 | 1936 ft | 151 kts | 45° |
| 2026-05-05 23:04 | 41.31139 | 28.77243 | 2354 ft | 165 kts | 31° |
| 2026-05-05 23:04 | 41.32061 | 28.78312 | 2638 ft | 192 kts | 59° |
| 2026-05-05 23:04 | 41.32232 | 28.80171 | 2979 ft | 223 kts | 104° |
| 2026-05-05 23:05 | 41.31307 | 28.81955 | 3422 ft | 254 kts | 142° |
| 2026-05-05 23:05 | 41.29659 | 28.83038 | 4051 ft | 273 kts | 160° |
| 2026-05-05 23:05 | 41.27800 | 28.83721 | 4951 ft | 281 kts | 166° |
| 2026-05-05 23:05 | 41.25864 | 28.84294 | 5851 ft | 288 kts | 167° |
| 2026-05-05 23:06 | 41.23889 | 28.84887 | 6756 ft | 294 kts | 165° |
| 2026-05-05 23:06 | 41.21886 | 28.85551 | 7619 ft | 299 kts | 164° |
| 2026-05-05 23:06 | 41.19868 | 28.86284 | 8519 ft | 303 kts | 163° |
| 2026-05-05 23:06 | 41.17826 | 28.87071 | 9398 ft | 308 kts | 162° |
| 2026-05-05 23:07 | 41.15754 | 28.87902 | 10179 ft | 317 kts | 161° |
| 2026-05-05 23:07 | 41.13567 | 28.88796 | 10458 ft | 340 kts | 161° |
| 2026-05-05 23:07 | 41.11255 | 28.89747 | 11027 ft | 351 kts | 161° |
| 2026-05-05 23:07 | 41.08905 | 28.90710 | 11752 ft | 356 kts | 161° |
| 2026-05-05 23:08 | 41.06550 | 28.91670 | 12497 ft | 360 kts | 161° |
| 2026-05-05 23:08 | 41.04141 | 28.92648 | 13264 ft | 364 kts | 161° |
| 2026-05-05 23:08 | 41.01707 | 28.93632 | 14006 ft | 368 kts | 161° |
| 2026-05-05 23:08 | 40.99245 | 28.94627 | 14682 ft | 371 kts | 161° |
| 2026-05-05 23:09 | 40.96764 | 28.95631 | 15359 ft | 374 kts | 161° |
| 2026-05-05 23:09 | 40.94261 | 28.96644 | 16044 ft | 377 kts | 161° |
| 2026-05-05 23:09 | 40.91738 | 28.97666 | 16701 ft | 381 kts | 162° |
| 2026-05-05 23:09 | 40.89193 | 28.98694 | 17364 ft | 384 kts | 162° |
| 2026-05-05 23:10 | 40.86626 | 28.99728 | 18026 ft | 387 kts | 162° |
| 2026-05-05 23:10 | 40.84034 | 29.00771 | 18651 ft | 391 kts | 162° |
| 2026-05-05 23:10 | 40.81423 | 29.01823 | 19249 ft | 394 kts | 162° |
| 2026-05-05 23:10 | 40.78794 | 29.02885 | 19866 ft | 397 kts | 162° |
| 2026-05-05 23:11 | 40.76147 | 29.03955 | 20486 ft | 400 kts | 162° |
| 2026-05-05 23:11 | 40.73477 | 29.05029 | 21082 ft | 403 kts | 162° |
| 2026-05-05 23:11 | 40.70786 | 29.06104 | 21656 ft | 406 kts | 162° |
| 2026-05-05 23:11 | 40.68076 | 29.07186 | 22229 ft | 409 kts | 162° |
| 2026-05-05 23:12 | 40.65347 | 29.08276 | 22804 ft | 412 kts | 162° |
| 2026-05-05 23:12 | 40.62594 | 29.09380 | 23394 ft | 415 kts | 162° |
| 2026-05-05 23:12 | 40.59823 | 29.10489 | 23927 ft | 418 kts | 162° |
| 2026-05-05 23:12 | 40.57025 | 29.11604 | 24407 ft | 421 kts | 162° |
| 2026-05-05 23:13 | 40.54216 | 29.12721 | 24877 ft | 424 kts | 162° |
| 2026-05-05 23:13 | 40.51382 | 29.13850 | 25340 ft | 427 kts | 162° |
| 2026-05-05 23:13 | 40.48531 | 29.14987 | 25793 ft | 430 kts | 162° |
| 2026-05-05 23:13 | 40.45659 | 29.16130 | 26228 ft | 433 kts | 162° |
| 2026-05-05 23:14 | 40.42764 | 29.17278 | 26647 ft | 436 kts | 162° |
| 2026-05-05 23:14 | 40.39850 | 29.18433 | 27081 ft | 439 kts | 162° |
| 2026-05-05 23:14 | 40.36917 | 29.19598 | 27502 ft | 441 kts | 162° |
| 2026-05-05 23:14 | 40.33971 | 29.20767 | 27908 ft | 444 kts | 162° |
| 2026-05-05 23:15 | 40.31004 | 29.21945 | 28325 ft | 447 kts | 162° |
| 2026-05-05 23:15 | 40.28020 | 29.23132 | 28722 ft | 450 kts | 162° |
| 2026-05-05 23:15 | 40.25015 | 29.24325 | 29119 ft | 453 kts | 162° |
| 2026-05-05 23:15 | 40.21993 | 29.25520 | 29517 ft | 456 kts | 162° |
| 2026-05-05 23:16 | 40.18939 | 29.26725 | 29872 ft | 460 kts | 162° |
| 2026-05-05 23:16 | 40.15907 | 29.27918 | 30232 ft | 463 kts | 162° |
| 2026-05-05 23:16 | 40.12814 | 29.29132 | 30564 ft | 466 kts | 162° |
| 2026-05-05 23:16 | 40.09700 | 29.30357 | 30912 ft | 468 kts | 162° |
| 2026-05-05 23:17 | 40.06572 | 29.31590 | 31264 ft | 471 kts | 162° |
| 2026-05-05 23:17 | 40.03429 | 29.32828 | 31587 ft | 473 kts | 162° |
| 2026-05-05 23:17 | 40.00267 | 29.34070 | 31937 ft | 475 kts | 162° |
| 2026-05-05 23:17 | 39.97109 | 29.35312 | 32411 ft | 474 kts | 162° |
| 2026-05-05 23:18 | 39.93957 | 29.36551 | 32872 ft | 473 kts | 162° |
| 2026-05-05 23:18 | 39.90810 | 29.37814 | 33067 ft | 473 kts | 160° |
| 2026-05-05 23:18 | 39.87806 | 29.39400 | 33102 ft | 460 kts | 156° |
| 2026-05-05 23:18 | 39.84879 | 29.41013 | 33100 ft | 454 kts | 156° |
| 2026-05-05 23:19 | 39.79081 | 29.44213 | 33106 ft | 452 kts | 156° |
| 2026-05-05 23:19 | 39.73289 | 29.47392 | 33107 ft | 451 kts | 156° |
| 2026-05-05 23:20 | 39.67499 | 29.50545 | 33104 ft | 451 kts | 156° |
| 2026-05-05 23:20 | 39.61699 | 29.53690 | 33113 ft | 452 kts | 157° |
| 2026-05-05 23:21 | 39.55841 | 29.56646 | 33121 ft | 452 kts | 159° |
| 2026-05-05 23:21 | 39.49957 | 29.59513 | 33015 ft | 450 kts | 159° |
| 2026-05-05 23:22 | 39.47053 | 29.60933 | 32749 ft | 443 kts | 158° |
| 2026-05-05 23:22 | 39.44183 | 29.62351 | 32486 ft | 440 kts | 158° |
| 2026-05-05 23:22 | 39.41332 | 29.63769 | 32229 ft | 437 kts | 158° |
| 2026-05-05 23:22 | 39.38498 | 29.65185 | 31971 ft | 435 kts | 158° |
| 2026-05-05 23:23 | 39.35684 | 29.66591 | 31717 ft | 433 kts | 158° |
| 2026-05-05 23:23 | 39.32877 | 29.67991 | 31461 ft | 431 kts | 158° |
| 2026-05-05 23:23 | 39.30082 | 29.69380 | 31213 ft | 429 kts | 158° |
| 2026-05-05 23:23 | 39.27305 | 29.70756 | 30966 ft | 427 kts | 158° |
| 2026-05-05 23:24 | 39.24534 | 29.72125 | 30716 ft | 425 kts | 158° |
| 2026-05-05 23:24 | 39.21779 | 29.73482 | 30477 ft | 422 kts | 158° |
| 2026-05-05 23:24 | 39.19049 | 29.74828 | 30096 ft | 419 kts | 158° |
| 2026-05-05 23:24 | 39.16330 | 29.76175 | 29621 ft | 417 kts | 158° |
| 2026-05-05 23:25 | 39.13628 | 29.77511 | 29193 ft | 414 kts | 158° |
| 2026-05-05 23:25 | 39.10979 | 29.78814 | 28774 ft | 412 kts | 158° |
| 2026-05-05 23:25 | 39.08307 | 29.80126 | 28358 ft | 410 kts | 158° |
| 2026-05-05 23:25 | 39.05648 | 29.81431 | 27946 ft | 408 kts | 158° |
| 2026-05-05 23:26 | 39.02998 | 29.82731 | 27529 ft | 407 kts | 158° |
| 2026-05-05 23:26 | 39.00353 | 29.84029 | 27102 ft | 406 kts | 158° |
| 2026-05-05 23:26 | 38.97718 | 29.85325 | 26666 ft | 405 kts | 158° |
| 2026-05-05 23:26 | 38.95092 | 29.86616 | 26236 ft | 404 kts | 158° |
| 2026-05-05 23:27 | 38.92465 | 29.87909 | 25807 ft | 403 kts | 158° |
| 2026-05-05 23:27 | 38.89852 | 29.89196 | 25385 ft | 402 kts | 158° |
| 2026-05-05 23:27 | 38.87241 | 29.90474 | 24961 ft | 401 kts | 159° |
| 2026-05-05 23:27 | 38.84632 | 29.91726 | 24523 ft | 400 kts | 159° |
| 2026-05-05 23:28 | 38.82021 | 29.92962 | 24091 ft | 399 kts | 159° |
| 2026-05-05 23:28 | 38.79417 | 29.94188 | 23628 ft | 399 kts | 159° |
| 2026-05-05 23:28 | 38.76817 | 29.95412 | 23133 ft | 397 kts | 159° |
| 2026-05-05 23:28 | 38.74235 | 29.96630 | 22688 ft | 394 kts | 159° |
| 2026-05-05 23:29 | 38.71676 | 29.97842 | 22245 ft | 391 kts | 159° |
| 2026-05-05 23:29 | 38.69135 | 29.99048 | 21798 ft | 388 kts | 159° |
| 2026-05-05 23:29 | 38.66619 | 30.00241 | 21358 ft | 384 kts | 159° |
| 2026-05-05 23:29 | 38.64122 | 30.01423 | 20924 ft | 381 kts | 159° |
| 2026-05-05 23:30 | 38.61646 | 30.02594 | 20486 ft | 378 kts | 159° |
| 2026-05-05 23:30 | 38.60019 | 30.03363 | 20197 ft | 376 kts | 159° |
| 2026-05-05 23:30 | 38.56754 | 30.04905 | 19618 ft | 372 kts | 159° |
| 2026-05-05 23:30 | 38.54331 | 30.06050 | 19182 ft | 370 kts | 159° |
| 2026-05-05 23:31 | 38.51924 | 30.07184 | 18757 ft | 368 kts | 159° |
| 2026-05-05 23:31 | 38.49530 | 30.08312 | 18307 ft | 366 kts | 159° |
| 2026-05-05 23:31 | 38.47149 | 30.09432 | 17856 ft | 363 kts | 160° |
| 2026-05-05 23:31 | 38.44825 | 30.10527 | 17440 ft | 359 kts | 160° |
| 2026-05-05 23:32 | 38.42490 | 30.11625 | 17026 ft | 356 kts | 160° |
| 2026-05-05 23:32 | 38.40174 | 30.12712 | 16615 ft | 353 kts | 160° |
| 2026-05-05 23:32 | 38.37871 | 30.13782 | 16197 ft | 351 kts | 162° |
| 2026-05-05 23:32 | 38.35497 | 30.14376 | 15790 ft | 347 kts | 178° |
| 2026-05-05 23:33 | 38.33116 | 30.14156 | 15385 ft | 342 kts | 194° |
| 2026-05-05 23:33 | 38.30895 | 30.13168 | 14959 ft | 337 kts | 210° |
| 2026-05-05 23:33 | 38.28828 | 30.11783 | 14528 ft | 337 kts | 204° |
| 2026-05-05 23:33 | 38.26555 | 30.11061 | 14133 ft | 337 kts | 192° |
| 2026-05-05 23:34 | 38.24244 | 30.10545 | 13693 ft | 337 kts | 192° |
| 2026-05-05 23:34 | 38.21947 | 30.10022 | 13280 ft | 335 kts | 192° |
| 2026-05-05 23:34 | 38.19665 | 30.09484 | 12874 ft | 332 kts | 192° |
| 2026-05-05 23:34 | 38.17405 | 30.08929 | 12467 ft | 330 kts | 193° |
| 2026-05-05 23:35 | 38.15159 | 30.08363 | 12065 ft | 328 kts | 193° |
| 2026-05-05 23:35 | 38.12927 | 30.07795 | 11642 ft | 327 kts | 193° |
| 2026-05-05 23:35 | 38.10700 | 30.07225 | 11187 ft | 327 kts | 193° |
| 2026-05-05 23:35 | 38.08474 | 30.06656 | 10785 ft | 325 kts | 193° |
| 2026-05-05 23:36 | 38.06266 | 30.06092 | 10387 ft | 323 kts | 193° |
| 2026-05-05 23:36 | 38.04068 | 30.05533 | 9990 ft | 321 kts | 193° |
| 2026-05-05 23:36 | 38.01884 | 30.04980 | 9568 ft | 319 kts | 193° |
| 2026-05-05 23:36 | 38.00449 | 30.04617 | 9302 ft | 317 kts | 193° |
| 2026-05-05 23:37 | 37.98296 | 30.04074 | 8907 ft | 314 kts | 193° |
| 2026-05-05 23:37 | 37.96176 | 30.03492 | 8516 ft | 310 kts | 199° |
| 2026-05-05 23:37 | 37.94294 | 30.02254 | 8132 ft | 299 kts | 220° |
| 2026-05-05 23:37 | 37.92944 | 30.00376 | 7766 ft | 281 kts | 239° |
| 2026-05-05 23:38 | 37.91987 | 29.98353 | 7431 ft | 254 kts | 241° |
| 2026-05-05 23:38 | 37.91120 | 29.96525 | 7120 ft | 231 kts | 241° |
| 2026-05-05 23:38 | 37.90311 | 29.94824 | 6844 ft | 221 kts | 241° |
| 2026-05-05 23:38 | 37.89525 | 29.93169 | 6563 ft | 218 kts | 241° |
| 2026-05-05 23:39 | 37.88747 | 29.91525 | 6269 ft | 217 kts | 241° |
| 2026-05-05 23:39 | 37.87972 | 29.89891 | 5988 ft | 214 kts | 240° |
| 2026-05-05 23:39 | 37.87224 | 29.88318 | 5731 ft | 202 kts | 240° |
| 2026-05-05 23:39 | 37.86511 | 29.86819 | 5478 ft | 195 kts | 240° |
| 2026-05-05 23:40 | 37.85817 | 29.85359 | 5223 ft | 191 kts | 240° |
| 2026-05-05 23:40 | 37.85161 | 29.83981 | 5076 ft | 177 kts | 240° |
| 2026-05-05 23:40 | 37.84536 | 29.82667 | 4880 ft | 172 kts | 240° |
| 2026-05-05 23:40 | 37.83942 | 29.81422 | 4679 ft | 156 kts | 240° |
| 2026-05-05 23:41 | 37.83399 | 29.80281 | 4451 ft | 148 kts | 240° |
| 2026-05-05 23:41 | 37.82875 | 29.79181 | 4247 ft | 145 kts | 240° |
| 2026-05-05 23:41 | 37.82359 | 29.78100 | 4029 ft | 142 kts | 240° |
| 2026-05-05 23:41 | 37.81851 | 29.77034 | 3829 ft | 141 kts | 240° |
| 2026-05-05 23:42 | 37.81343 | 29.75974 | 3628 ft | 141 kts | 240° |
| 2026-05-05 23:42 | 37.80837 | 29.74919 | 3420 ft | 140 kts | 240° |
| 2026-05-05 23:42 | 37.80343 | 29.73865 | 3181 ft | 139 kts | 240° |
| 2026-05-05 23:42 | 37.79842 | 29.72822 | 2962 ft | 139 kts | 239° |
| 2026-05-05 23:43 | 37.79345 | 29.71778 | 2833 ft | 139 kts | 238° |
| 2026-05-05 23:43 | 37.78871 | 29.70792 | 2776 ft | 108 kts | 239° |
| 2026-05-05 23:43 | 37.78609 | 29.70237 | 2778 ft | 58 kts | 239° |
| 2026-05-05 23:43 | 37.78415 | 29.69822 | 2781 ft | 52 kts | 239° |
| 2026-05-05 23:44 | 37.78243 | 29.69453 | 2786 ft | 41 kts | 239° |
| 2026-05-05 23:44 | 37.78093 | 29.69147 | 2789 ft | 41 kts | 237° |
| 2026-05-05 23:44 | 37.77979 | 29.68922 | 2790 ft | 28 kts | 239° |
| 2026-05-05 23:44 | 37.77900 | 29.68754 | 2794 ft | 17 kts | 238° |
| 2026-05-05 23:45 | 37.77795 | 29.68737 | 2794 ft | 19 kts | 147° |
| 2026-05-05 23:45 | 37.77675 | 29.68831 | 2790 ft | 22 kts | 148° |
| 2026-05-05 23:45 | 37.77566 | 29.68914 | 2793 ft | 14 kts | 150° |
| 2026-05-05 23:45 | 37.77495 | 29.68961 | 2789 ft | 0 kts | 149° |